Arrantzale — EBVT — position and weather

sailwx.info

Track history (hours):
 
Tides and Currents Weather Stations Pressure Air Temp Water Temp Dewpoint Dewpoint Depression Visibility Wind Speed Wind Dir Waves Ship Positions

Arrantzale

Last reported at 2014-Sep-15 00:18 UTC. Time now 2014-Sep-16 07:26 UTC.
Position N 45°41' W 001°40'.

Length 32 m.

Type: Fishing. MMSI: 224065290.

Date/timePositionNaut miles runAvg speedWind from/ knotsBaromVisibWave heightAir tempDewpointWater temp
2014-Sep-15 00:18N 45°41' W 001°40'1 1.0
2014-Sep-14 23:08N 45°41' W 001°38'50 1.8
2014-Sep-13 19:27N 44°52' W 001°40'8 9.4
2014-Sep-13 18:33N 44°43' W 001°40'9 9.4
2014-Sep-13 17:33N 44°34' W 001°40'9 9.4
2014-Sep-13 16:33N 44°25' W 001°41'9 9.5
2014-Sep-13 15:34N 44°15' W 001°42'10 9.7
2014-Sep-13 14:33N 44°05' W 001°43'9 9.5
2014-Sep-13 13:33N 43°56' W 001°44'10 9.7
2014-Sep-13 12:31N 43°46' W 001°45'10 9.7
2014-Sep-13 11:29N 43°36' W 001°45'1010.1
2014-Sep-13 10:31N 43°26' W 001°46'3 3.2
2014-Sep-13 09:33N 43°23' W 001°47'0 0.1
2014-Sep-13 08:33N 43°23' W 001°47'  
Track history (hours):
 
Tides and Currents Weather Stations Pressure Air Temp Water Temp Dewpoint Dewpoint Depression Visibility Wind Speed Wind Dir Waves Ship Positions

Arrantzale

Last reported at 2014-Sep-15 00:18 UTC. Time now 2014-Sep-16 07:26 UTC.
Position N 45°41' W 001°40'.

Length 32 m.

Type: Fishing. MMSI: 224065290.

Date/timePositionNaut miles runAvg speedWind from/ knotsBaromVisibWave heightAir tempDewpointWater temp
2014-Sep-15 00:18N 45°41' W 001°40'1 1.0
2014-Sep-14 23:08N 45°41' W 001°38'50 1.8
2014-Sep-13 19:27N 44°52' W 001°40'8 9.4
2014-Sep-13 18:33N 44°43' W 001°40'9 9.4
2014-Sep-13 17:33N 44°34' W 001°40'9 9.4
2014-Sep-13 16:33N 44°25' W 001°41'9 9.5
2014-Sep-13 15:34N 44°15' W 001°42'10 9.7
2014-Sep-13 14:33N 44°05' W 001°43'9 9.5
2014-Sep-13 13:33N 43°56' W 001°44'10 9.7
2014-Sep-13 12:31N 43°46' W 001°45'10 9.7
2014-Sep-13 11:29N 43°36' W 001°45'1010.1
2014-Sep-13 10:31N 43°26' W 001°46'3 3.2
2014-Sep-13 09:33N 43°23' W 001°47'0 0.1
2014-Sep-13 08:33N 43°23' W 001°47'  

Dump ship's entire track history